• Join FlightAware (Why Join?)
  • Login
  • US Flag 
05:58AM EST


 

Airport Tracker/Info


-or-


 

Live Flight TrackerFlight Track Log ✈ EIN104 ✈ 21-Jan-2014 ✈ KJFK - EIDW / DUB

Flight Track Log - Related Links

Times and Time Zones

All times are in EST time to prevent confusion due to time zone crossing. See the EIN104 flight status page for this flight to view local times or setup timezone preferences in your user account.

Time Position Orientation Groundspeed Altitude Reporting Facility
EST Latitude Longitude Course Direction KTS MPH feet Rate Location/Type
07:42PM 40.6585 -73.7346 94° East 140 161 3,300  Level FlightAware ADS-B
07:46PM 40.8545 -73.5135 30° Northeast 344 396 11,000 1,860 Climbing FlightAware ADS-B (KSNC)
07:47PM 40.8977 -73.4741 35° Northeast 371 427 11,600 2,100 Climbing FlightAware ADS-B (KSNC)
07:47PM 40.9582 -73.4324 28° Northeast 378 435 13,600 2,580 Climbing FlightAware ADS-B (KSNC)
07:48PM 41.0386 -73.3764 28° Northeast 395 455 15,600 2,340 Climbing FlightAware ADS-B (KSNC)
07:49PM 41.1066 -73.3293 28° Northeast 409 471 17,300 1,920 Climbing FlightAware ADS-B (KSNC)
07:50PM 41.2037 -73.2618 28° Northeast 441 507 18,800 1,800 Climbing FlightAware ADS-B (KSNC)
07:50PM 41.2749 -73.2087 29° Northeast 455 524 20,200 2,100 Climbing FlightAware ADS-B (KSNC)
07:51PM 41.3213 -73.1516 43° Northeast 459 528 21,300 1,920 Climbing FlightAware ADS-B (KSNC)
07:52PM 41.3715 -73.0474 57° Northeast 471 542 22,600 1,860 Climbing FlightAware ADS-B (KSNC)
07:52PM 41.4134 -72.9716 54° Northeast 479 551 23,600 1,860 Climbing FlightAware ADS-B (KSNC)
07:53PM 41.4650 -72.8769 54° Northeast 486 559 24,900 1,740 Climbing FlightAware ADS-B (KSNC)
07:53PM 41.5153 -72.7839 54° Northeast 495 570 25,900 1,560 Climbing FlightAware ADS-B (KSNC)
07:54PM 41.5689 -72.6870 53° Northeast 504 580 26,900 1,440 Climbing FlightAware ADS-B (KSNC)
07:55PM 41.6267 -72.5820 54° Northeast 513 590 27,900 1,260 Climbing FlightAware ADS-B (KSNC)
07:56PM 41.6851 -72.4753 54° Northeast 522 601 28,700 1,200 Climbing FlightAware ADS-B (KSNC)
07:56PM 41.7315 -72.3902 54° Northeast 529 609 29,400 1,260 Climbing FlightAware ADS-B (KSNC)
07:57PM 41.7906 -72.2815 54° Northeast 535 616 30,300 1,620 Climbing FlightAware ADS-B (KSNC)
07:57PM 41.8493 -72.1731 54° Northeast 529 609 31,600 1,560 Climbing FlightAware ADS-B (KSNC)
07:58PM 41.9056 -72.0687 54° Northeast 534 615 32,400 1,200 Climbing FlightAware ADS-B (KSNC)
07:59PM 41.9641 -71.9599 54° Northeast 537 618 33,200 1,140 Climbing FlightAware ADS-B (KSNC)
07:59PM 42.0093 -71.8755 54° Northeast 537 618 33,800 1,080 Climbing FlightAware ADS-B
08:00PM 42.0599 -71.7810 54° Northeast 539 620 34,400 1,020 Climbing FlightAware ADS-B (KSNC)
08:00PM 42.1020 -71.7021 54° Northeast 540 621 35,000 540 Climbing FlightAware ADS-B (KOWD)
08:01PM 42.1484 -71.6146 54° Northeast 553 636 35,000  Level FlightAware ADS-B (KSNC)
08:02PM 42.2146 -71.4895 54° Northeast 564 649 35,000  Level FlightAware ADS-B (SBBR / BSB)
08:02PM 42.2785 -71.3684 54° Northeast 562 647 35,000  Level FlightAware ADS-B (SBBR / BSB)
08:03PM 42.3555 -71.2218 55° Northeast 564 649 35,000  Level FlightAware ADS-B (KOWD)
08:04PM 42.4178 -71.1028 55° Northeast 566 651 35,000  Level FlightAware ADS-B (KOWD)
08:05PM 42.4975 -70.9498 55° Northeast 565 650 35,000  Level FlightAware ADS-B (KOWD)
08:06PM 42.5888 -70.7734 55° Northeast 565 650 35,000  Level FlightAware ADS-B (KOWD)
08:06PM 42.5992 -70.7531 55° Northeast 565 650 35,000  Level FlightAware ADS-B (KOWD)
08:07PM 42.7067 -70.5437 55° Northeast 564 649 35,000  Level FlightAware ADS-B (SBBR / BSB)
08:08PM 42.7569 -70.4454 55° Northeast 565 650 35,000  Level FlightAware ADS-B (KBOS)
08:08PM 42.8021 -70.3567 55° Northeast 565 650 35,000  Level FlightAware ADS-B (SBBR / BSB)
08:09PM 42.8525 -70.2575 55° Northeast 567 652 35,000  Level FlightAware ADS-B (KBOS)
08:09PM 42.9076 -70.1486 55° Northeast 568 654 35,000  Level FlightAware ADS-B (KBOS)
08:10PM 42.9719 -70.0214 55° Northeast 568 654 35,000  Level FlightAware ADS-B (KBOS)
08:11PM 43.0241 -69.9176 55° Northeast 570 656 35,000  Level FlightAware ADS-B (SBBR / BSB)
08:11PM 43.0507 -69.8645 56° Northeast 571 657 35,000  Level FlightAware ADS-B (CYQI)
08:12PM 43.1200 -69.7253 56° Northeast 571 657 35,000  Level FlightAware ADS-B (KBOS)
08:13PM 43.1948 -69.5746 56° Northeast 575 662 35,000  Level FlightAware ADS-B (CYQI)
08:13PM 43.2559 -69.4513 56° Northeast 578 665 35,000  Level FlightAware ADS-B (CYQI)
08:14PM 43.3089 -69.3437 56° Northeast 578 665 35,000  Level FlightAware ADS-B (CYQI)
08:15PM 43.3657 -69.2283 56° Northeast 579 666 35,000  Level FlightAware ADS-B (CYQI)
08:15PM 43.4362 -69.0841 56° Northeast 578 665 35,000  Level FlightAware ADS-B (CYQI)
08:16PM 43.4899 -68.9735 56° Northeast 579 666 35,000  Level FlightAware ADS-B (CYQI)
08:17PM 43.5426 -68.8648 56° Northeast 581 669 35,000  Level FlightAware ADS-B (CYQI)
08:17PM 43.5951 -68.7561 56° Northeast 582 670 35,000  Level FlightAware ADS-B (CYQI)
08:18PM 43.6655 -68.6094 56° Northeast 583 671 35,000  Level FlightAware ADS-B (CYQI)
08:19PM 43.7136 -68.5086 56° Northeast 582 670 35,000  Level FlightAware ADS-B (CYQI)
08:19PM 43.7902 -68.3482 56° Northeast 583 671 35,000  Level FlightAware ADS-B (CYQI)
08:20PM 43.8507 -68.2207 57° Northeast 584 672 35,000  Level FlightAware ADS-B (CYQI)
08:21PM 43.9090 -68.0975 57° Northeast 587 676 35,000  Level FlightAware ADS-B (CYQI)
08:21PM 43.9703 -67.9671 57° Northeast 589 678 35,000  Level FlightAware ADS-B (CYQI)
08:22PM 44.0244 -67.8514 57° Northeast 591 680 35,000  Level FlightAware ADS-B (CYQI)
08:23PM 44.0837 -67.7244 57° Northeast 593 682 35,000  Level FlightAware ADS-B (CYQI)
08:23PM 44.1363 -67.6111 57° Northeast 594 684 35,000  Level FlightAware ADS-B (CYQI)
08:24PM 44.2059 -67.4603 57° Northeast 596 686 35,000  Level FlightAware ADS-B (CYQI)
08:25PM 44.2609 -67.3407 57° Northeast 598 688 35,000  Level FlightAware ADS-B (CYQI)
08:25PM 44.3243 -67.2022 57° Northeast 598 688 35,000  Level FlightAware ADS-B (CYQI)
08:26PM 44.3836 -67.0721 57° Northeast 598 688 35,000  Level FlightAware ADS-B (CYQI)
08:27PM 44.4435 -66.9445 57° Northeast 599 689 35,000  Level FlightAware ADS-B (CYQI)
08:28PM 44.5466 -66.7577 52° Northeast 603 694 35,000  Level FlightAware ADS-B (CYQI)
08:29PM 44.7174 -66.4409 53° Northeast 604 695 35,000  Level FlightAware ADS-B (CYQI)
08:30PM 44.7826 -66.3183 53° Northeast 607 699 35,000  Level FlightAware ADS-B (CYQI)
08:31PM 44.8466 -66.1976 53° Northeast 605 696 35,000  Level FlightAware ADS-B (CYQI)
08:33PM 45.0509 -65.8080 53° Northeast 611 703 35,000  Level FlightAware ADS-B (CYQI)
08:34PM 45.1805 -65.5586 54° Northeast 614 707 35,000  Level FlightAware ADS-B (CYQI)
08:35PM 45.2512 -65.4214 54° Northeast 614 707 35,000  Level FlightAware ADS-B (CYQI)
08:35PM 45.3147 -65.2980 54° Northeast 614 707 35,000  Level FlightAware ADS-B (CYQI)
08:36PM 45.3777 -65.1748 54° Northeast 615 708 35,000  Level FlightAware ADS-B (CYQI)
08:37PM 45.4866 -64.9603 54° Northeast 616 709 35,000  Level FlightAware ADS-B (CYQI)
08:38PM 45.6178 -64.7000 54° Northeast 617 710 35,000  Level FlightAware ADS-B (CYQI)
08:39PM 45.6732 -64.5893 54° Northeast 618 711 35,000  Level FlightAware ADS-B (CYQI)
08:39PM 45.7185 -64.4984 54° Northeast 618 711 35,000  Level FlightAware ADS-B (CYQI)
08:41PM 45.8544 -64.2244 54° Northeast 618 711 35,000  Level FlightAware ADS-B (CYQI)
08:42PM 45.9667 -63.9667 54° Northeast 610 702 35,000  Level Moncton Center
08:43PM 46.0500 -63.7667 59° Northeast 620 713 35,000  Level Moncton Center
08:44PM 46.1500 -63.5833 52° Northeast 610 702 35,000  Level Moncton Center
08:45PM 46.2500 -63.3833 54° Northeast 620 713 35,000  Level Moncton Center
08:46PM 46.3333 -63.1833 59° Northeast 620 713 35,000  Level Moncton Center
08:47PM 46.4333 -62.9667 56° Northeast 620 713 35,000  Level Moncton Center
08:48PM 46.5333 -62.7667 54° Northeast 610 702 35,000  Level Moncton Center
08:49PM 46.6333 -62.5500 56° Northeast 610 702 35,000  Level Moncton Center
08:50PM 46.7333 -62.3500 54° Northeast 610 702 35,000  Level Moncton Center
08:51PM 46.8167 -62.1167 62° Northeast 610 702 35,000  Level Moncton Center
08:52PM 46.9167 -61.9167 54° Northeast 610 702 35,000  Level Moncton Center
08:53PM 47.0167 -61.7167 54° Northeast 610 702 35,000  Level Moncton Center
08:54PM 47.1167 -61.5167 54° Northeast 610 702 35,000  Level Moncton Center
08:55PM 47.2000 -61.3167 58° Northeast 620 713 35,000  Level Moncton Center
08:56PM 47.3000 -61.0833 58° Northeast 620 713 35,000  Level Moncton Center
08:57PM 47.3833 -60.8833 58° Northeast 610 702 35,000  Level Moncton Center
08:58PM 47.4833 -60.6500 58° Northeast 620 713 35,000  Level Moncton Center
08:59PM 47.5667 -60.4500 58° Northeast 620 713 35,000  Level Moncton Center
09:00PM 47.6667 -60.2167 57° Northeast 610 702 35,000  Level Moncton Center
09:01PM 47.7500 -60.0167 58° Northeast 620 713 35,000  Level Moncton Center
09:02PM 47.8500 -59.8000 55° Northeast 610 702 35,000  Level Moncton Center
09:03PM 47.9333 -59.5667 62° Northeast 610 702 35,000  Level Moncton Center
09:04PM 48.0167 -59.3667 58° Northeast 610 702 35,000  Level Moncton Center
09:05PM 48.1167 -59.1500 55° Northeast 610 702 35,000  Level Moncton Center
09:06PM 48.2000 -58.9500 58° Northeast 610 702 35,000  Level Moncton Center
09:07PM 48.3000 -58.7000 59° Northeast 610 702 35,000  Level Moncton Center
09:08PM 48.3833 -58.5000 58° Northeast 610 702 35,000  Level Moncton Center
09:09PM 48.4833 -58.2833 55° Northeast 600 690 35,000  Level Moncton Center
09:10PM 48.5500 -58.0667 65° Northeast 610 702 35,000  Level Moncton Center
09:11PM 48.6333 -57.8333 62° Northeast 610 702 35,000  Level Moncton Center
09:12PM 48.7167 -57.6167 60° Northeast 600 690 35,000 600 Level Moncton Center
09:13PM 48.8167 -57.3667 59° Northeast 600 690 36,300 960 Climbing Moncton Center
09:14PM 48.8833 -57.1667 63° Northeast 600 690 37,000 300 Climbing Moncton Center
09:15PM 48.9500 -56.9167 68° East 590 679 37,000  Level Moncton Center
09:16PM 49.0167 -56.7333 61° Northeast 590 679 37,000  Level Moncton Center
09:17PM 49.1000 -56.4833 63° Northeast 600 690 37,000  Level Moncton Center
09:18PM 49.1667 -56.2667 65° Northeast 600 690 37,000  Level Moncton Center
09:19PM 49.2333 -56.0333 66° East 600 690 37,000  Level Moncton Center
09:20PM 49.3167 -55.8000 61° Northeast 600 690 37,000  Level Moncton Center
09:21PM 49.4000 -55.5833 59° Northeast 600 690 37,000  Level Moncton Center
09:22PM 49.4667 -55.3333 68° East 600 690 37,000  Level Moncton Center
09:23PM 49.5333 -55.1167 65° Northeast 600 690 37,000  Level Moncton Center
09:24PM 49.6000 -54.8667 68° East 600 690 37,000  Level Moncton Center
09:25PM 49.6833 -54.6500 59° Northeast 600 690 37,000  Level Moncton Center
09:26PM 49.7500 -54.4333 64° Northeast 600 690 37,000  Level Moncton Center
09:27PM 49.8333 -54.1833 63° Northeast 600 690 37,000  Level Moncton Center
09:28PM 49.9000 -53.9500 66° East 600 690 37,000  Level Moncton Center
09:29PM 49.9500 -53.7000 73° East 590 679 37,000  Level Moncton Center
09:30PM 50.0167 -53.4833 64° Northeast 600 690 37,000  Level Moncton Center
09:31PM 50.0833 -53.2333 67° East 600 690 37,000  Level Moncton Center
09:32PM 50.1500 -53.0000 66° East 600 690 37,000  Level Moncton Center
09:33PM 50.2167 -52.7500 67° East 600 690 37,000  Level Moncton Center
09:34PM 50.2833 -52.5167 66° East 600 690 37,000  Level Moncton Center
09:35PM 50.3667 -52.3000 59° Northeast 600 690 37,000  Level Moncton Center
09:36PM 50.4167 -52.0333 74° East 600 690 37,000  Level Moncton Center
09:37PM 50.4833 -51.8167 64° Northeast 600 690 37,000  Level Moncton Center
09:38PM 50.5500 -51.5833 66° East 600 690 37,000  Level Moncton Center
09:39PM 50.6167 -51.3167 68° East 600 690 37,000  Level Moncton Center
09:40PM 50.6833 -51.0833 66° East 600 690 37,000  Level Moncton Center
09:41PM 50.7333 -50.8333 72° East 600 690 37,000  Level Moncton Center
09:42PM 50.8000 -50.6000 66° East 600 690 37,000  Level Moncton Center
09:43PM 50.8667 -50.3667 66° East 600 690 37,000  Level Moncton Center
09:44PM 50.9167 -50.1167 72° East 600 690 37,000  Level Moncton Center
09:45PM 50.9833 -49.8833 66° East 600 690 37,000  Level Moncton Center
09:46PM 51.0500 -49.6167 68° East 600 690 37,000  Level Moncton Center
09:47PM 51.1333 -49.3333 65° Northeast 600 690 37,000  Level Gander Center
09:48PM 51.2167 -49.1333 56° Northeast 600 690 37,000  Level Gander Center
09:50PM 51.2868 -48.8430 69° East  Level FlightAware Approximate
09:57PM 51.6385 -47.3238 69° East  Level FlightAware Approximate
09:58PM 51.6872 -47.1049 70° East  Level FlightAware Approximate
09:59PM 51.7354 -46.8854 70° East  Level FlightAware Approximate
10:00PM 51.7833 -46.6656 71° East  Level FlightAware Approximate
10:01PM 51.8307 -46.4452 71° East  Level FlightAware Approximate
10:02PM 51.8777 -46.2244 71° East  Level FlightAware Approximate
10:03PM 51.9243 -46.0032 71° East  Level FlightAware Approximate
10:04PM 51.9704 -45.7814 71° East  Level FlightAware Approximate
10:05PM 52.0162 -45.5593 71° East  Level FlightAware Approximate
10:06PM 52.0615 -45.3367 72° East  Level FlightAware Approximate
10:07PM 52.1065 -45.1136 72° East  Level FlightAware Approximate
10:08PM 52.1510 -44.8900 72° East  Level FlightAware Approximate
10:09PM 52.1950 -44.6661 72° East  Level FlightAware Approximate
10:10PM 52.2387 -44.4417 72° East  Level FlightAware Approximate
10:11PM 52.2819 -44.2168 72° East  Level FlightAware Approximate
10:12PM 52.3247 -43.9915 73° East  Level FlightAware Approximate
10:13PM 52.3671 -43.7658 73° East  Level FlightAware Approximate
10:14PM 52.4090 -43.5397 73° East  Level FlightAware Approximate
10:15PM 52.4505 -43.3131 73° East  Level FlightAware Approximate
10:16PM 52.4916 -43.0861 73° East  Level FlightAware Approximate
10:17PM 52.5322 -42.8586 74° East  Level FlightAware Approximate
10:18PM 52.5724 -42.6308 74° East  Level FlightAware Approximate
10:19PM 52.6121 -42.4025 74° East  Level FlightAware Approximate
10:20PM 52.6515 -42.1739 74° East  Level FlightAware Approximate
10:21PM 52.6903 -41.9448 74° East  Level FlightAware Approximate
10:22PM 52.7288 -41.7153 74° East  Level FlightAware Approximate
10:23PM 52.7668 -41.4854 75° East  Level FlightAware Approximate
10:24PM 52.8043 -41.2551 75° East  Level FlightAware Approximate
10:25PM 52.8414 -41.0244 75° East  Level FlightAware Approximate
10:26PM 52.8780 -40.7933 75° East  Level FlightAware Approximate
10:27PM 52.9142 -40.5619 75° East  Level FlightAware Approximate
10:28PM 52.9500 -40.3300 76° East  Level FlightAware Approximate
10:29PM 52.9853 -40.0978 76° East  Level FlightAware Approximate
10:30PM 53.0057 -39.8613 86° East  Level FlightAware Approximate
10:31PM 53.0153 -39.6220 86° East  Level FlightAware Approximate
10:32PM 53.0243 -39.3827 86° East  Level FlightAware Approximate
10:33PM 53.0329 -39.1433 86° East  Level FlightAware Approximate
10:34PM 53.0410 -38.9038 87° East  Level FlightAware Approximate
10:35PM 53.0486 -38.6641 87° East  Level FlightAware Approximate
10:36PM 53.0558 -38.4244 87° East  Level FlightAware Approximate
10:37PM 53.0624 -38.1847 87° East  Level FlightAware Approximate
10:38PM 53.0686 -37.9448 87° East  Level FlightAware Approximate
10:39PM 53.0743 -37.7049 88° East  Level FlightAware Approximate
10:40PM 53.0795 -37.4650 88° East  Level FlightAware Approximate
10:41PM 53.0842 -37.2249 88° East  Level FlightAware Approximate
10:42PM 53.0884 -36.9849 88° East  Level FlightAware Approximate
10:43PM 53.0922 -36.7448 88° East  Level FlightAware Approximate
10:44PM 53.0955 -36.5046 89° East  Level FlightAware Approximate
10:45PM 53.0982 -36.2644 89° East  Level FlightAware Approximate
10:46PM 53.1005 -36.0242 89° East  Level FlightAware Approximate
10:47PM 53.1024 -35.7839 89° East  Level FlightAware Approximate
10:48PM 53.1037 -35.5437 89° East  Level FlightAware Approximate
10:49PM 53.1045 -35.3034 90° East  Level FlightAware Approximate
10:50PM 53.1049 -35.0631 90° East  Level FlightAware Approximate
10:51PM 53.1048 -34.8228 90° East  Level FlightAware Approximate
10:52PM 53.1042 -34.5826 90° East  Level FlightAware Approximate
10:53PM 53.1031 -34.3423 90° East  Level FlightAware Approximate
10:54PM 53.1016 -34.1021 91° East  Level FlightAware Approximate
10:55PM 53.0995 -33.8618 91° East  Level FlightAware Approximate
10:56PM 53.0970 -33.6216 91° East  Level FlightAware Approximate
10:57PM 53.0940 -33.3814 91° East  Level FlightAware Approximate
10:58PM 53.0905 -33.1413 91° East  Level FlightAware Approximate
10:59PM 53.0865 -32.9012 91° East  Level FlightAware Approximate
11:00PM 53.0820 -32.6611 92° East  Level FlightAware Approximate
11:01PM 53.0771 -32.4211 92° East  Level FlightAware Approximate
11:02PM 53.0716 -32.1812 92° East  Level FlightAware Approximate
11:03PM 53.0657 -31.9413 92° East  Level FlightAware Approximate
11:04PM 53.0593 -31.7015 92° East  Level FlightAware Approximate
11:05PM 53.0524 -31.4618 93° East  Level FlightAware Approximate
11:06PM 53.0451 -31.2221 93° East  Level FlightAware Approximate
11:07PM 53.0372 -30.9825 93° East  Level FlightAware Approximate
11:08PM 53.0289 -30.7431 93° East  Level FlightAware Approximate
11:09PM 53.0201 -30.5037 93° East  Level FlightAware Approximate
11:10PM 53.0108 -30.2644 94° East  Level FlightAware Approximate
11:11PM 53.0011 -30.0252 94° East  Level FlightAware Approximate
11:12PM 53.0300 -29.7914 76° East  Level FlightAware Approximate
11:13PM 53.0632 -29.5578 77° East  Level FlightAware Approximate
11:14PM 53.0959 -29.3240 77° East  Level FlightAware Approximate
11:15PM 53.1281 -29.0897 77° East  Level FlightAware Approximate
11:16PM 53.1598 -28.8551 77° East  Level FlightAware Approximate
11:17PM 53.1911 -28.6202 77° East  Level FlightAware Approximate
11:18PM 53.2220 -28.3849 78° East  Level FlightAware Approximate
11:19PM 53.2524 -28.1493 78° East  Level FlightAware Approximate
11:20PM 53.2823 -27.9133 78° East  Level FlightAware Approximate
11:21PM 53.3117 -27.6770 78° East  Level FlightAware Approximate
11:22PM 53.3407 -27.4404 78° East  Level FlightAware Approximate
11:23PM 53.3692 -27.2035 79° East  Level FlightAware Approximate
11:24PM 53.3973 -26.9663 79° East  Level FlightAware Approximate
11:25PM 53.4248 -26.7287 79° East  Level FlightAware Approximate
11:26PM 53.4519 -26.4909 79° East  Level FlightAware Approximate
11:27PM 53.4785 -26.2527 79° East  Level FlightAware Approximate
11:28PM 53.5047 -26.0143 79° East  Level FlightAware Approximate
11:29PM 53.5304 -25.7755 80° East  Level FlightAware Approximate
11:30PM 53.5556 -25.5365 80° East  Level FlightAware Approximate
11:31PM 53.5803 -25.2972 80° East  Level FlightAware Approximate
11:32PM 53.6045 -25.0576 80° East  Level FlightAware Approximate
11:33PM 53.6283 -24.8178 80° East  Level FlightAware Approximate
11:34PM 53.6516 -24.5776 81° East  Level FlightAware Approximate
11:35PM 53.6744 -24.3372 81° East  Level FlightAware Approximate
11:36PM 53.6967 -24.0966 81° East  Level FlightAware Approximate
11:37PM 53.7185 -23.8557 81° East  Level FlightAware Approximate
11:38PM 53.7399 -23.6145 81° East  Level FlightAware Approximate
11:39PM 53.7607 -23.3731 82° East  Level FlightAware Approximate
11:40PM 53.7811 -23.1315 82° East  Level FlightAware Approximate
11:41PM 53.8010 -22.8897 82° East  Level FlightAware Approximate
11:42PM 53.8204 -22.6476 82° East  Level FlightAware Approximate
11:43PM 53.8394 -22.4053 82° East  Level FlightAware Approximate
11:44PM 53.8578 -22.1627 83° East  Level FlightAware Approximate
11:45PM 53.8758 -21.9200 83° East  Level FlightAware Approximate
11:46PM 53.8932 -21.6770 83° East  Level FlightAware Approximate
11:47PM 53.9102 -21.4339 83° East  Level FlightAware Approximate
11:48PM 53.9267 -21.1906 83° East  Level FlightAware Approximate
11:49PM 53.9426 -20.9471 84° East  Level FlightAware Approximate
11:50PM 53.9581 -20.7033 84° East  Level FlightAware Approximate
11:51PM 53.9731 -20.4594 84° East  Level FlightAware Approximate
11:52PM 53.9876 -20.2154 84° East  Level FlightAware Approximate
11:53PM 54.0004 -19.9711 89° East  Level FlightAware Approximate
11:54PM 54.0036 -19.7257 89° East  Level FlightAware Approximate
11:55PM 54.0062 -19.4803 89° East  Level FlightAware Approximate
11:56PM 54.0084 -19.2349 89° East  Level FlightAware Approximate
11:57PM 54.0100 -18.9894 89° East  Level FlightAware Approximate
11:58PM 54.0112 -18.7439 89° East  Level FlightAware Approximate
11:59PM 54.0118 -18.4984 90° East  Level FlightAware Approximate
12:00AM 54.0120 -18.2530 90° East  Level FlightAware Approximate
12:01AM 54.0116 -18.0075 90° East  Level FlightAware Approximate
12:02AM 54.0107 -17.7620 90° East  Level FlightAware Approximate
12:03AM 54.0094 -17.5165 90° East  Level FlightAware Approximate
12:04AM 54.0075 -17.2711 91° East  Level FlightAware Approximate
12:05AM 54.0052 -17.0257 91° East  Level FlightAware Approximate
12:06AM 54.0023 -16.7803 91° East  Level FlightAware Approximate
12:07AM 53.9990 -16.5349 91° East  Level FlightAware Approximate
12:08AM 53.9952 -16.2896 91° East  Level FlightAware Approximate
12:09AM 53.9908 -16.0443 92° East  Level FlightAware Approximate
12:10AM 53.9860 -15.7991 92° East  Level FlightAware Approximate
12:11AM 53.9806 -15.5540 92° East  Level FlightAware Approximate
12:12AM 53.9748 -15.3089 92° East  Level FlightAware Approximate
12:13AM 53.9684 -15.0639 92° East  Level FlightAware Approximate
12:14AM 53.9618 -14.8189 93° East  Level FlightAware Approximate
12:15AM 53.9547 -14.5740 93° East  Level FlightAware Approximate
12:16AM 53.9471 -14.3292 93° East  Level FlightAware Approximate
12:17AM 53.9390 -14.0845 93° East  Level FlightAware Approximate
12:18AM 53.9305 -13.8399 93° East  Level FlightAware Approximate
12:19AM 53.9214 -13.5954 94° East  Level FlightAware Approximate
12:20AM 53.9118 -13.3511 94° East  Level FlightAware Approximate
12:20AM 53.9518 -11.1358 94° East 512 589 37,000  Level FlightAware ADS-B (EICK / ORK)
12:21AM 53.9477 -10.9943 93° East 515 593 37,000  Level FlightAware ADS-B (EICK / ORK)
12:21AM 53.9421 -10.8106 93° East 516 594 37,000  Level FlightAware ADS-B (EICK / ORK)
12:22AM 53.9369 -10.6480 93° East 514 592 37,000  Level FlightAware ADS-B (EICK / ORK)
12:23AM 53.9315 -10.4852 93° East 512 589 37,000  Level FlightAware ADS-B (EICK / ORK)
12:23AM 53.9269 -10.3520 93° East 513 590 37,000  Level FlightAware ADS-B (EICK / ORK)
12:24AM 53.9217 -10.2061 93° East 514 592 37,000  Level FlightAware ADS-B (EICK / ORK)
12:24AM 53.9167 -10.0708 94° East 515 593 37,000  Level FlightAware ADS-B (EICK / ORK)
12:25AM 53.9105 -9.9093 94° East 516 594 37,000  Level FlightAware ADS-B (EICK / ORK)
12:26AM 53.9022 -9.7002 94° East 511 588 37,000  Level FlightAware ADS-B (EICK / ORK)
12:27AM 53.8957 -9.5434 94° East 510 587 37,000  Level FlightAware ADS-B (EICK / ORK)
12:27AM 53.8889 -9.3816 94° East 511 588 37,000 -420 Level FlightAware ADS-B (EICK / ORK)
12:28AM 53.8823 -9.2314 94° East 508 585 36,500 -900 Descending FlightAware ADS-B (EICK / ORK)
12:29AM 53.8750 -9.0722 94° East 497 572 35,900 -1,020 Descending FlightAware ADS-B (EICK / ORK)
12:29AM 53.8692 -8.9467 94° East 464 534 35,300 -1,200 Descending FlightAware UK
12:29AM 53.8684 -8.9316 94° East 502 578 35,200 -900 Descending FlightAware ADS-B (EICK / ORK)
12:30AM 53.8637 -8.8304 94° East 499 574 34,800 -900 Descending FlightAware ADS-B
12:30AM 53.8547 -8.6459 95° East 507 583 34,100 -1,740 Descending FlightAware ADS-B
12:31AM 53.8466 -8.4762 95° East 466 536 32,400 -2,460 Descending FlightAware UK
12:31AM 53.8453 -8.4562 95° East 512 589 32,200 -2,640 Descending FlightAware ADS-B (EICK / ORK)
12:32AM 53.8368 -8.2920 95° East 510 587 30,400 -2,400 Descending FlightAware ADS-B (EICK / ORK)
12:32AM 53.8297 -8.1596 95° East 502 578 29,200 -2,100 Descending FlightAware ADS-B (EGAA / BFS)
12:33AM 53.8265 -8.1012 95° East 502 578 28,700 -2,040 Descending FlightAware ADS-B (EICK / ORK)
12:33AM 53.8183 -7.9513 95° East 504 580 27,300 -2,160 Descending FlightAware ADS-B
12:34AM 53.8091 -7.7876 95° East 495 570 25,800 -2,280 Descending FlightAware ADS-B
12:35AM 53.8011 -7.6528 95° East 424 488 24,500 -2,340 Descending FlightAware UK
12:35AM 53.8011 -7.6478 95° East 486 559 24,400 -1,500 Descending FlightAware ADS-B
12:35AM 53.7943 -7.5312 96° East 469 540 23,700 -1,980 Descending FlightAware ADS-B (EGAA / BFS)
12:36AM 53.7781 -7.3973 102° East 467 537 22,200 -2,160 Descending FlightAware ADS-B
12:36AM 53.7478 -7.2738 102° East 410 472 21,000 -1,860 Descending FlightAware UK
12:37AM 53.7454 -7.2616 102° East 446 513 20,900 -2,520 Descending FlightAware ADS-B
12:37AM 53.7193 -7.1323 109° East 426 490 19,100 -3,060 Descending FlightAware ADS-B (EGAA / BFS)
12:38AM 53.6900 -6.9896 109° East 415 478 16,500 -3,300 Descending FlightAware ADS-B
12:39AM 53.6671 -6.8814 109° East 378 435 14,700 -3,000 Descending FlightAware UK
12:39AM 53.6618 -6.8555 109° East 402 463 14,300 -3,000 Descending FlightAware ADS-B (EGAA / BFS)
12:39AM 53.6398 -6.7521 110° East 382 440 12,400 -3,540 Descending FlightAware ADS-B
12:40AM 53.6165 -6.6445 110° East 1 1 9,900 -3,780 Descending FlightAware UK
12:40AM 53.6140 -6.6315 110° East 372 428 9,700 -1,800 Descending FlightAware ADS-B
12:40AM 53.6021 -6.5762 110° East 349 402 9,100 -1,440 Descending FlightAware ADS-B
12:41AM 53.5912 -6.5251 110° East 324 373 8,700 -1,200 Descending FlightAware ADS-B (EIDW / DUB)
12:41AM 53.5818 -6.4817 110° East 304 350 8,300 -1,680 Descending FlightAware ADS-B
12:41AM 53.5718 -6.4355 110° East 298 343 7,600 -2,100 Descending FlightAware ADS-B (EIDW / DUB)
12:42AM 53.5622 -6.3913 110° East 292 336 6,900 -1,800 Descending FlightAware ADS-B (EIDW / DUB)
12:42AM 53.5532 -6.3499 110° East 292 336 6,400 -1,320 Descending FlightAware ADS-B (EIDW / DUB)
12:42AM 53.5436 -6.3055 110° East 289 333 6,000 -1,380 Descending FlightAware ADS-B (EIDW / DUB)
12:43AM 53.5352 -6.2672 110° East 289 333 5,500 -1,080 Descending FlightAware ADS-B (EIDW / DUB)
12:43AM 53.5254 -6.2225 110° East 279 321 5,300 -600 Descending FlightAware ADS-B (EIDW / DUB)
12:43AM 53.5172 -6.1850 110° East 266 306 5,100 -600 Descending FlightAware ADS-B (EIDW / DUB)
12:44AM 53.5085 -6.1450 110° East 256 295 4,900 -480 Descending FlightAware ADS-B (EIDW / DUB)
12:44AM 53.5007 -6.1096 110° East 246 283 4,800 -600 Descending FlightAware ADS-B (EIDW / DUB)
12:44AM 53.4923 -6.0715 110° East 242 278 4,500 -960 Descending FlightAware ADS-B (EIDW / DUB)
12:45AM 53.4853 -6.0398 110° East 237 273 4,200 -780 Descending FlightAware ADS-B (EIDW / DUB)
12:45AM 53.4781 -6.0072 110° East 225 259 4,000 -480 Descending FlightAware ADS-B (EIDW / DUB)
12:45AM 53.4723 -5.9810 110° East 213 245 3,900 -660 Descending FlightAware ADS-B (EIDW / DUB)
12:46AM 53.4641 -5.9442 111° Southeast 208 239 3,600 -1,080 Descending FlightAware ADS-B (EIDW / DUB)
12:46AM 53.4542 -5.9157 120° Southeast 203 234 3,200 -1,020 Descending FlightAware ADS-B (EIDW / DUB)
12:46AM 53.4374 -5.9093 167° South 185 213 2,900 -660 Descending FlightAware ADS-B (EIDW / DUB)
12:47AM 53.4313 -5.9145 207° Southwest 173 199 2,900  Level FlightAware ADS-B (EIDW / DUB)
12:48AM 53.4077 -5.9963 244° Southwest 158 182 2,900  Level FlightAware ADS-B (EIDW / DUB)
12:48AM 53.4074 -6.0201 269° West 158 182 2,900  Level FlightAware ADS-B (EIDW / DUB)
12:48AM 53.4087 -6.0434 275° West 159 183 2,900 -180 Level FlightAware ADS-B (EIDW / DUB)
12:49AM 53.4102 -6.0684 276° West 148 170 2,800 -600 Descending FlightAware ADS-B (EIDW / DUB)
12:49AM 53.4115 -6.0924 275° West 145 167 2,500 -780 Descending FlightAware ADS-B (EIDW / DUB)
12:49AM 53.4126 -6.1136 275° West 132 152 2,300 -780 Descending FlightAware ADS-B (EIDW / DUB)
12:50AM 53.4137 -6.1338 275° West 127 146 2,000 -780 Descending FlightAware ADS-B (EIDW / DUB)
12:50AM 53.4149 -6.1527 276° West 123 142 1,800 -600 Descending FlightAware ADS-B (EIDW / DUB)
12:50AM 53.4160 -6.1716 275° West 124 143 1,600 -600 Descending FlightAware ADS-B (EIDW / DUB)
12:51AM 53.4169 -6.1906 275° West 124 143 1,400 -780 Descending FlightAware ADS-B (EIDW / DUB)
12:51AM 53.4180 -6.2101 275° West 126 145 1,100 -780 Descending FlightAware ADS-B (EIDW / DUB)
12:51AM 53.4191 -6.2294 275° West 129 148 900 -600 Descending FlightAware ADS-B (EIDW / DUB)
12:54AM 53.4167 -6.2667 102° East  Level FlightAware Approximate
12:55AM 53.4213 -6.2701 102° East  Level Estimated
12:56AM 53.4167 -6.2667 102° East  Level FlightAware Approximate
12:57AM 53.4213 -6.2701 102° East  Level Estimated
12:58AM 53.4167 -6.2667 102° East  Level FlightAware Approximate